Time;durP1;ratioP1;P1;durP2;ratioP2;P2;SDS_P1;SDS_P2;PMS_P1;PMS_P2;Temp;Humidity;BMP_temperature;BMP_pressure;BME280_temperature;BME280_humidity;BME280_pressure;Samples;Min_cycle;Max_cycle;Signal;HPM_P1;HPM_P2
2023/07/06 00:00:10;;;;;;;3.00;1.40;;;14.50;95.30;;;;;;5058728;28;20517;-79
2023/07/06 00:02:36;;;;;;;2.93;1.20;;;14.40;95.50;;;;;;5058583;28;20447;-79
2023/07/06 00:05:02;;;;;;;2.57;1.33;;;14.30;96.00;;;;;;5059500;28;20412;-79
2023/07/06 00:07:28;;;;;;;3.77;1.70;;;14.20;96.30;;;;;;5058412;28;20281;-80
2023/07/06 00:09:53;;;;;;;5.67;1.80;;;14.10;96.60;;;;;;5059831;28;20536;-79
2023/07/06 00:12:22;;;;;;;3.20;0.90;;;14.10;96.80;;;;;;5059303;28;20204;-80
2023/07/06 00:14:50;;;;;;;4.30;1.33;;;14.00;97.20;;;;;;5050711;28;20224;-80
2023/07/06 00:17:17;;;;;;;2.83;1.10;;;13.90;97.70;;;;;;5059167;28;20450;-79
2023/07/06 00:19:43;;;;;;;1.70;1.00;;;13.80;97.80;;;;;;5046099;28;20435;-79
2023/07/06 00:22:10;;;;;;;3.23;1.60;;;13.80;97.80;;;;;;5059243;28;20428;-79
2023/07/06 00:24:37;;;;;;;4.83;1.90;;;13.80;97.80;;;;;;5048500;28;20428;-80
2023/07/06 00:27:03;;;;;;;2.47;0.97;;;13.80;98.20;;;;;;5040210;28;20464;-80
2023/07/06 00:29:34;;;;;;;8.83;1.87;;;13.70;98.30;;;;;;5034248;28;20837;-80
2023/07/06 00:32:25;;;;;;;1.70;1.00;;;13.80;98.60;;;;;;5034208;28;20513;-78
2023/07/06 00:34:51;;;;;;;1.63;1.03;;;13.80;98.40;;;;;;5048492;28;20978;-79
2023/07/06 00:37:17;;;;;;;2.80;1.40;;;13.80;98.80;;;;;;5046310;28;20428;-79
2023/07/06 00:39:43;;;;;;;3.00;1.20;;;13.70;98.90;;;;;;5029826;28;20175;-80
2023/07/06 00:42:22;;;;;;;3.13;1.60;;;13.80;98.70;;;;;;5042371;28;20190;-79
2023/07/06 00:44:59;;;;;;;2.93;1.47;;;13.90;99.00;;;;;;5033640;28;20471;-80
2023/07/06 00:47:37;;;;;;;2.77;1.27;;;13.80;98.80;;;;;;5041864;28;20766;-80
2023/07/06 00:50:16;;;;;;;4.17;1.30;;;13.80;98.90;;;;;;5052834;28;20991;-79
2023/07/06 00:52:48;;;;;;;2.70;1.37;;;13.70;98.80;;;;;;5053484;28;20448;-80
2023/07/06 00:55:16;;;;;;;14.67;1.40;;;13.80;99.10;;;;;;5055000;28;20430;-79
2023/07/06 00:57:46;;;;;;;3.07;1.67;;;13.80;99.20;;;;;;5055359;28;20424;-79
2023/07/06 01:00:20;;;;;;;6.40;1.60;;;13.60;99.50;;;;;;5054998;28;20457;-79
2023/07/06 01:02:46;;;;;;;3.87;1.63;;;13.60;99.50;;;;;;5053986;28;20442;-80
2023/07/06 01:05:12;;;;;;;3.53;1.47;;;13.60;99.70;;;;;;5054174;28;20519;-80
2023/07/06 01:07:41;;;;;;;4.30;1.50;;;13.60;99.90;;;;;;5051707;28;20475;-80
2023/07/06 01:10:09;;;;;;;6.43;1.63;;;13.60;99.90;;;;;;5055045;28;20214;-80
2023/07/06 01:12:34;;;;;;;3.83;1.40;;;13.60;99.90;;;;;;5039501;28;20449;-80
2023/07/06 01:15:00;;;;;;;2.43;1.30;;;13.50;99.90;;;;;;5044769;28;21242;-79
2023/07/06 01:17:45;;;;;;;3.87;1.20;;;13.40;99.90;;;;;;5052087;28;20325;-80
2023/07/06 01:20:16;;;;;;;3.50;1.23;;;13.50;99.90;;;;;;5053889;28;20280;-79
2023/07/06 01:22:47;;;;;;;4.87;1.07;;;13.40;99.90;;;;;;5053201;28;20448;-79
2023/07/06 01:25:25;;;;;;;1.80;0.97;;;13.30;99.90;;;;;;5054626;28;20431;-79
2023/07/06 01:28:09;;;;;;;2.63;1.43;;;13.20;99.90;;;;;;5029670;28;20435;-80
2023/07/06 01:31:02;;;;;;;2.80;1.20;;;13.10;99.90;;;;;;5045319;28;20421;-77
2023/07/06 01:33:38;;;;;;;3.80;1.10;;;13.00;99.90;;;;;;5036536;28;20496;-80
2023/07/06 01:36:41;;;;;;;2.70;1.73;;;13.00;99.90;;;;;;5050530;28;20974;-79
2023/07/06 01:39:14;;;;;;;2.27;0.80;;;12.90;99.90;;;;;;5031133;28;20558;-80
2023/07/06 01:41:40;;;;;;;2.87;1.20;;;12.70;99.90;;;;;;5054774;28;20421;-80
2023/07/06 01:44:09;;;;;;;1.80;0.90;;;12.70;99.90;;;;;;5054233;28;20459;-79
2023/07/06 01:46:34;;;;;;;2.30;1.20;;;12.60;99.90;;;;;;5064045;28;20187;-80
2023/07/06 01:49:00;;;;;;;2.50;1.67;;;12.60;99.90;;;;;;5070046;28;20497;-80
2023/07/06 01:51:36;;;;;;;2.67;1.20;;;12.70;99.90;;;;;;5058652;28;20186;-80
2023/07/06 01:54:09;;;;;;;1.90;1.00;;;12.70;99.90;;;;;;5068928;28;20225;-81
2023/07/06 01:56:46;;;;;;;5.43;1.53;;;12.70;99.90;;;;;;5075318;28;20413;-80
2023/07/06 01:59:17;;;;;;;2.13;1.13;;;12.70;99.90;;;;;;5027107;28;20476;-79
2023/07/06 02:01:50;;;;;;;4.57;0.93;;;12.70;99.90;;;;;;5036291;28;20501;-79
2023/07/06 02:04:20;;;;;;;3.70;1.40;;;12.60;99.90;;;;;;5037733;28;20483;-80
2023/07/06 02:06:48;;;;;;;2.30;1.10;;;12.50;99.90;;;;;;5041078;28;20417;-79
2023/07/06 02:09:18;;;;;;;3.10;1.40;;;12.40;99.90;;;;;;5047315;28;20515;-79
2023/07/06 02:11:43;;;;;;;2.43;1.27;;;12.20;99.90;;;;;;5052701;28;20428;-79
2023/07/06 02:14:09;;;;;;;2.90;1.53;;;12.30;99.90;;;;;;5044443;28;20991;-80
2023/07/06 02:16:35;;;;;;;2.77;1.10;;;12.20;99.90;;;;;;5054250;28;20653;-79
2023/07/06 02:19:02;;;;;;;5.50;2.27;;;12.20;99.90;;;;;;5053729;28;20182;-79
2023/07/06 02:21:27;;;;;;;3.00;1.40;;;12.10;99.90;;;;;;5053639;28;20526;-80
2023/07/06 02:23:53;;;;;;;2.07;1.07;;;12.10;99.90;;;;;;5054236;28;20472;-80
2023/07/06 02:26:18;;;;;;;2.57;1.23;;;12.20;99.90;;;;;;5052555;28;20194;-80
2023/07/06 02:28:44;;;;;;;2.20;1.50;;;12.10;99.90;;;;;;5052540;28;20675;-80
2023/07/06 02:31:09;;;;;;;3.63;1.17;;;12.20;99.90;;;;;;5028890;28;20187;-79
2023/07/06 02:33:35;;;;;;;2.30;1.30;;;12.10;99.90;;;;;;5030854;28;20263;-79
2023/07/06 02:36:01;;;;;;;1.70;1.10;;;12.10;99.90;;;;;;5035891;28;20193;-80
2023/07/06 02:38:29;;;;;;;3.30;1.30;;;12.00;99.90;;;;;;5041348;28;20178;-79
2023/07/06 02:40:56;;;;;;;2.43;1.00;;;12.00;99.90;;;;;;5054045;28;20217;-79
2023/07/06 02:43:22;;;;;;;3.63;1.90;;;12.00;99.90;;;;;;5042257;28;20440;-79
2023/07/06 02:45:48;;;;;;;2.67;1.33;;;12.00;99.90;;;;;;5039737;28;20429;-79
2023/07/06 02:48:14;;;;;;;2.67;1.27;;;11.90;99.90;;;;;;5028883;28;20572;-79
2023/07/06 02:50:40;;;;;;;2.73;1.50;;;11.90;99.90;;;;;;5031249;28;20420;-77
2023/07/06 02:53:06;;;;;;;4.10;1.33;;;11.90;99.90;;;;;;5042619;28;20469;-79
2023/07/06 02:55:32;;;;;;;18.33;1.70;;;11.90;99.90;;;;;;5042683;28;20178;-80
2023/07/06 02:57:58;;;;;;;4.13;1.30;;;11.90;99.90;;;;;;5038985;28;20476;-80
2023/07/06 03:00:24;;;;;;;12.33;1.73;;;12.00;99.90;;;;;;5053918;28;20192;-80
2023/07/06 03:02:50;;;;;;;4.87;1.47;;;12.00;99.90;;;;;;5050634;28;20464;-80
2023/07/06 03:05:22;;;;;;;2.00;1.00;;;11.90;99.90;;;;;;5042431;28;20420;-80
2023/07/06 03:07:49;;;;;;;1.97;1.07;;;11.80;99.90;;;;;;5051793;28;20432;-79
2023/07/06 03:10:17;;;;;;;3.13;1.27;;;11.80;99.90;;;;;;5053408;28;20451;-80
2023/07/06 03:12:43;;;;;;;3.30;1.43;;;11.80;99.90;;;;;;5040208;28;20532;-80
2023/07/06 03:15:13;;;;;;;2.60;1.23;;;11.70;99.90;;;;;;5051711;28;20448;-79
2023/07/06 03:17:39;;;;;;;3.57;1.77;;;11.70;99.90;;;;;;5037256;28;20420;-80
2023/07/06 03:20:18;;;;;;;2.60;1.50;;;11.70;99.90;;;;;;5053710;28;20953;-79
2023/07/06 03:22:48;;;;;;;2.40;1.23;;;11.60;99.90;;;;;;5032405;28;20836;-80
2023/07/06 03:25:19;;;;;;;2.33;1.27;;;11.60;99.90;;;;;;5034021;28;20500;-80
2023/07/06 03:27:48;;;;;;;2.53;1.27;;;11.60;99.90;;;;;;5046016;28;20416;-80
2023/07/06 03:30:18;;;;;;;3.10;1.40;;;11.60;99.90;;;;;;5039895;28;21142;-80
2023/07/06 03:32:44;;;;;;;3.00;1.10;;;11.60;99.90;;;;;;5037390;28;20520;-79
2023/07/06 03:35:11;;;;;;;3.60;1.40;;;11.50;99.90;;;;;;5049296;28;20455;-80
2023/07/06 03:37:37;;;;;;;2.70;1.60;;;11.50;99.90;;;;;;5050201;28;20177;-79
2023/07/06 03:40:10;;;;;;;2.17;1.17;;;11.50;99.90;;;;;;5048084;28;20416;-79
2023/07/06 03:42:38;;;;;;;3.03;1.30;;;11.50;99.90;;;;;;5054000;28;20429;-80
2023/07/06 03:45:05;;;;;;;3.40;1.80;;;11.50;99.90;;;;;;5050685;28;20440;-80
2023/07/06 03:47:33;;;;;;;4.73;1.93;;;11.50;99.90;;;;;;5043837;28;20430;-80
2023/07/06 03:49:59;;;;;;;3.00;1.33;;;11.40;99.90;;;;;;5052176;28;20434;-80
2023/07/06 03:52:25;;;;;;;4.07;2.07;;;11.50;99.90;;;;;;5053628;28;20813;-80
2023/07/06 03:54:50;;;;;;;3.10;1.23;;;11.60;99.90;;;;;;5052713;28;20474;-80
2023/07/06 03:57:16;;;;;;;3.93;1.30;;;11.50;99.90;;;;;;5054186;28;20249;-80
2023/07/06 03:59:42;;;;;;;3.10;1.37;;;11.40;99.90;;;;;;5040649;28;20971;-80
2023/07/06 04:02:09;;;;;;;2.50;1.33;;;11.40;99.90;;;;;;5054421;28;20185;-80
2023/07/06 04:04:35;;;;;;;4.70;1.43;;;11.30;99.90;;;;;;5053761;28;20551;-79
2023/07/06 04:07:01;;;;;;;3.00;1.20;;;11.40;99.90;;;;;;5048008;28;20941;-79
2023/07/06 04:09:28;;;;;;;2.10;1.07;;;11.40;99.90;;;;;;5055241;28;20240;-80
2023/07/06 04:11:54;;;;;;;3.13;1.20;;;11.30;99.90;;;;;;5037491;28;20511;-80
2023/07/06 04:14:24;;;;;;;4.60;1.30;;;11.40;99.90;;;;;;5051383;28;20752;-79
2023/07/06 04:16:51;;;;;;;4.10;1.93;;;11.40;99.90;;;;;;5048076;28;20416;-80
2023/07/06 04:19:17;;;;;;;2.57;1.10;;;11.40;99.90;;;;;;5056097;28;20427;-80
2023/07/06 04:21:42;;;;;;;3.07;1.00;;;11.40;99.90;;;;;;5047886;28;20439;-79
2023/07/06 04:24:08;;;;;;;2.80;1.20;;;11.40;99.90;;;;;;5044398;28;20226;-79
2023/07/06 04:26:34;;;;;;;3.10;1.23;;;11.50;99.90;;;;;;5058070;28;20277;-79
2023/07/06 04:28:59;;;;;;;2.63;1.40;;;11.50;99.90;;;;;;5056597;28;20192;-80
2023/07/06 04:31:25;;;;;;;2.00;1.17;;;11.60;99.90;;;;;;5041802;28;20210;-80
2023/07/06 04:33:51;;;;;;;2.87;1.17;;;11.70;99.90;;;;;;5045655;28;20205;-79
2023/07/06 04:36:17;;;;;;;3.50;1.70;;;11.70;99.90;;;;;;5056986;28;20556;-79
2023/07/06 04:38:43;;;;;;;3.40;1.40;;;11.80;99.90;;;;;;5047800;28;20185;-80
2023/07/06 04:41:12;;;;;;;2.77;1.57;;;11.90;99.90;;;;;;5056592;28;20430;-79
2023/07/06 04:43:37;;;;;;;2.43;1.27;;;12.00;99.90;;;;;;5056991;28;20441;-80
2023/07/06 04:46:03;;;;;;;6.93;1.47;;;11.90;99.90;;;;;;5046168;28;20432;-80
2023/07/06 04:48:30;;;;;;;2.17;1.23;;;12.00;99.90;;;;;;5040961;28;20194;-79
2023/07/06 04:50:56;;;;;;;2.70;1.43;;;12.10;99.90;;;;;;5053900;28;20530;-80
2023/07/06 04:53:22;;;;;;;3.33;0.87;;;12.10;99.90;;;;;;5054353;28;20482;-79
2023/07/06 04:55:48;;;;;;;4.73;1.60;;;12.10;99.90;;;;;;5054214;28;20192;-79
2023/07/06 04:58:14;;;;;;;5.70;1.73;;;12.30;99.90;;;;;;5054121;28;20417;-78
2023/07/06 05:00:40;;;;;;;3.13;1.30;;;12.30;99.90;;;;;;5054399;28;20477;-78
2023/07/06 05:03:07;;;;;;;2.80;1.50;;;12.40;99.90;;;;;;5054141;28;20206;-79
2023/07/06 05:05:45;;;;;;;3.77;1.73;;;12.50;99.90;;;;;;5055029;28;20209;-78
2023/07/06 05:08:15;;;;;;;2.33;1.33;;;12.60;99.90;;;;;;5028854;28;20435;-79
2023/07/06 05:10:48;;;;;;;7.97;1.87;;;12.50;99.90;;;;;;5052536;28;20920;-78
2023/07/06 05:13:14;;;;;;;2.10;1.00;;;12.60;99.90;;;;;;5053531;28;20533;-79
2023/07/06 05:15:40;;;;;;;3.03;1.67;;;12.70;99.90;;;;;;5049285;28;20417;-79
2023/07/06 05:18:06;;;;;;;2.23;1.57;;;12.90;99.90;;;;;;5050369;28;20564;-80
2023/07/06 05:20:32;;;;;;;1.87;1.30;;;13.00;99.90;;;;;;5052827;28;20206;-79
2023/07/06 05:22:58;;;;;;;5.30;2.03;;;13.10;99.90;;;;;;5054636;28;21139;-79
2023/07/06 05:25:25;;;;;;;2.17;1.50;;;13.20;99.90;;;;;;5051741;28;20630;-80
2023/07/06 05:27:51;;;;;;;2.37;1.00;;;13.30;99.90;;;;;;5043721;28;20408;-79
2023/07/06 05:30:17;;;;;;;3.83;2.00;;;13.30;99.90;;;;;;5051302;28;20479;-80
2023/07/06 05:32:42;;;;;;;3.40;1.63;;;13.50;99.90;;;;;;5034496;28;20236;-80
2023/07/06 05:35:09;;;;;;;2.70;1.43;;;13.60;99.90;;;;;;5036929;28;20456;-80
2023/07/06 05:37:35;;;;;;;2.97;1.17;;;13.70;99.90;;;;;;5049945;28;20190;-80
2023/07/06 05:40:04;;;;;;;5.10;2.07;;;13.70;99.90;;;;;;5033827;28;20421;-80
2023/07/06 05:42:30;;;;;;;3.30;1.50;;;13.90;99.90;;;;;;5052418;28;20447;-80
2023/07/06 05:44:56;;;;;;;2.53;1.23;;;13.90;99.90;;;;;;5051155;28;20424;-80
2023/07/06 05:47:22;;;;;;;3.43;1.53;;;14.10;99.90;;;;;;5040683;28;20427;-80
2023/07/06 05:49:47;;;;;;;3.10;1.17;;;14.20;99.90;;;;;;5049451;28;20194;-81
2023/07/06 05:52:13;;;;;;;3.73;1.67;;;14.30;99.90;;;;;;5051512;28;20189;-81
2023/07/06 05:54:39;;;;;;;2.03;1.13;;;14.30;99.90;;;;;;5039077;28;20210;-80
2023/07/06 05:57:06;;;;;;;2.50;1.37;;;14.40;99.90;;;;;;5052489;28;20265;-80
2023/07/06 05:59:32;;;;;;;4.47;1.30;;;14.50;99.90;;;;;;5051993;28;20416;-80
2023/07/06 06:01:59;;;;;;;3.73;1.73;;;14.60;99.90;;;;;;5051493;28;20412;-80
2023/07/06 06:04:27;;;;;;;3.43;1.23;;;14.70;99.90;;;;;;5036921;28;20445;-80
2023/07/06 06:06:56;;;;;;;4.17;1.43;;;14.80;99.90;;;;;;5051816;28;20876;-80
2023/07/06 06:09:25;;;;;;;4.70;1.30;;;14.90;99.90;;;;;;5051547;28;20864;-80
2023/07/06 06:11:51;;;;;;;2.27;1.10;;;15.00;99.90;;;;;;5052236;28;20431;-80
2023/07/06 06:14:18;;;;;;;2.43;1.43;;;15.10;99.90;;;;;;5051196;28;20470;-80
2023/07/06 06:16:43;;;;;;;3.73;1.60;;;15.10;99.90;;;;;;5045414;28;20412;-80
2023/07/06 06:19:09;;;;;;;3.30;1.23;;;15.20;99.90;;;;;;5052498;28;20465;-80
2023/07/06 06:21:35;;;;;;;3.60;1.13;;;15.40;99.90;;;;;;5041736;28;20194;-80
2023/07/06 06:24:02;;;;;;;2.63;1.30;;;15.40;99.90;;;;;;5052443;28;21122;-80
2023/07/06 06:26:29;;;;;;;3.17;1.00;;;15.50;99.30;;;;;;5044750;28;20514;-80
2023/07/06 06:28:55;;;;;;;1.57;0.80;;;15.70;97.80;;;;;;5042294;28;20527;-81
2023/07/06 06:31:21;;;;;;;2.33;1.13;;;15.90;98.20;;;;;;5062500;28;20451;-80
2023/07/06 06:33:46;;;;;;;3.27;1.30;;;15.90;98.50;;;;;;5075410;28;20460;-81
2023/07/06 06:36:17;;;;;;;2.37;1.23;;;16.00;98.20;;;;;;5068773;28;20205;-80
2023/07/06 06:38:43;;;;;;;2.90;1.43;;;16.10;97.70;;;;;;5062722;28;20245;-80
2023/07/06 06:41:10;;;;;;;1.87;1.10;;;16.10;96.80;;;;;;5047308;28;20460;-79
2023/07/06 06:43:39;;;;;;;4.53;1.20;;;16.30;96.20;;;;;;5050162;28;20242;-80
2023/07/06 06:46:06;;;;;;;3.00;1.43;;;16.30;94.60;;;;;;5051441;28;20432;-81
2023/07/06 06:48:32;;;;;;;3.10;1.20;;;16.50;94.70;;;;;;5038772;28;20424;-80
2023/07/06 06:50:59;;;;;;;3.40;1.57;;;16.50;94.50;;;;;;5046833;28;20439;-80
2023/07/06 06:53:26;;;;;;;5.07;1.10;;;16.70;94.30;;;;;;5051370;28;20482;-80
2023/07/06 06:55:52;;;;;;;6.13;1.03;;;16.80;93.50;;;;;;5040383;28;20487;-80
2023/07/06 06:58:19;;;;;;;2.93;1.03;;;17.00;93.50;;;;;;5031472;28;20849;-81
2023/07/06 07:00:45;;;;;;;2.33;1.17;;;17.20;93.30;;;;;;5032148;28;20504;-80
2023/07/06 07:03:11;;;;;;;5.67;0.80;;;17.20;93.60;;;;;;5036688;28;20662;-80
2023/07/06 07:05:37;;;;;;;3.00;1.30;;;17.40;93.40;;;;;;5063547;28;20194;-81
2023/07/06 07:08:03;;;;;;;2.07;1.17;;;17.60;92.30;;;;;;5042237;28;20424;-80
2023/07/06 07:10:29;;;;;;;3.10;1.00;;;17.80;92.10;;;;;;5054204;28;20432;-79
2023/07/06 07:12:55;;;;;;;2.90;1.43;;;17.90;91.50;;;;;;5054310;28;20217;-80
2023/07/06 07:15:21;;;;;;;1.63;0.70;;;18.10;89.20;;;;;;5050849;28;20467;-80
2023/07/06 07:17:46;;;;;;;3.10;1.13;;;18.20;89.30;;;;;;5046488;28;20189;-80
2023/07/06 07:20:13;;;;;;;3.37;1.07;;;18.30;88.70;;;;;;5038643;28;20205;-80
2023/07/06 07:22:39;;;;;;;2.30;1.00;;;18.40;87.60;;;;;;5052541;28;20632;-78
2023/07/06 07:25:06;;;;;;;2.10;1.00;;;18.60;86.50;;;;;;5053900;28;20424;-80
2023/07/06 07:27:34;;;;;;;3.40;1.40;;;19.00;85.80;;;;;;5047876;28;20421;-80
2023/07/06 07:30:04;;;;;;;2.73;0.83;;;19.20;84.30;;;;;;5037772;28;20564;-80
2023/07/06 07:32:30;;;;;;;2.70;1.00;;;19.50;82.60;;;;;;5035733;28;20540;-80
2023/07/06 07:34:57;;;;;;;7.83;1.90;;;19.60;82.70;;;;;;5046693;28;21194;-80
2023/07/06 07:37:23;;;;;;;3.67;1.03;;;19.90;82.00;;;;;;5051884;28;20284;-80
2023/07/06 07:39:48;;;;;;;3.67;1.67;;;20.30;81.40;;;;;;5048972;28;20503;-79
2023/07/06 07:42:16;;;;;;;1.90;1.00;;;20.50;80.40;;;;;;5054625;28;20185;-81
2023/07/06 07:44:45;;;;;;;4.03;1.23;;;20.90;78.20;;;;;;5055054;28;20205;-80
2023/07/06 07:47:11;;;;;;;2.20;1.20;;;23.10;72.50;;;;;;5043135;28;20430;-80
2023/07/06 07:49:37;;;;;;;4.40;1.10;;;23.30;72.40;;;;;;5052252;28;20438;-81
2023/07/06 07:52:04;;;;;;;1.67;0.83;;;24.00;72.90;;;;;;5033243;28;20994;-80
2023/07/06 07:54:30;;;;;;;2.55;1.45;;;25.00;70.30;;;;;;5048508;28;20209;-81
2023/07/06 07:56:56;;;;;;;3.78;1.45;;;25.90;68.00;;;;;;5046949;28;20188;-81
2023/07/06 07:59:23;;;;;;;2.58;1.33;;;27.30;60.40;;;;;;5049675;28;20185;-81
2023/07/06 08:01:50;;;;;;;5.22;1.67;;;27.20;61.20;;;;;;5049654;28;20193;-81
2023/07/06 08:04:16;;;;;;;4.15;1.48;;;26.60;62.00;;;;;;5035126;28;20205;-81
2023/07/06 08:06:42;;;;;;;2.22;1.23;;;26.80;61.30;;;;;;5044969;28;20181;-81
2023/07/06 08:09:09;;;;;;;4.13;1.40;;;26.70;62.40;;;;;;5055118;28;20637;-81
2023/07/06 08:11:37;;;;;;;5.18;1.17;;;27.10;60.30;;;;;;5043485;28;20193;-82
2023/07/06 08:14:08;;;;;;;2.45;1.30;;;28.20;57.70;;;;;;5053337;28;20213;-81
2023/07/06 08:16:34;;;;;;;6.38;1.67;;;27.80;57.50;;;;;;5045225;28;20173;-81
2023/07/06 08:19:03;;;;;;;2.47;1.38;;;27.90;57.60;;;;;;5056824;28;20231;-81
2023/07/06 08:21:29;;;;;;;3.05;1.00;;;27.90;58.10;;;;;;5038030;28;20750;-81
2023/07/06 08:23:57;;;;;;;2.05;1.20;;;28.00;56.40;;;;;;5046426;28;20197;-81
2023/07/06 08:26:24;;;;;;;2.03;1.15;;;27.30;58.00;;;;;;5056207;28;20236;-81
2023/07/06 08:28:49;;;;;;;3.15;1.27;;;26.60;60.00;;;;;;5043976;28;20225;-82
2023/07/06 08:31:19;;;;;;;4.50;1.70;;;26.70;59.40;;;;;;5042193;28;20641;-82
2023/07/06 08:33:46;;;;;;;2.40;1.20;;;27.50;57.10;;;;;;5040813;28;20592;-81
2023/07/06 08:36:13;;;;;;;2.15;1.17;;;27.60;57.20;;;;;;5045786;28;20181;-81
2023/07/06 08:38:39;;;;;;;1.90;1.00;;;27.90;56.90;;;;;;5047607;28;20193;-79
2023/07/06 08:41:34;;;;;;;1.80;1.08;;;27.30;58.30;;;;;;5066349;28;20269;-82
2023/07/06 08:44:02;;;;;;;2.40;1.20;;;27.20;58.80;;;;;;5017811;28;20205;-81
2023/07/06 08:46:34;;;;;;;6.45;1.70;;;27.10;58.50;;;;;;5034012;28;20178;-81
2023/07/06 08:49:00;;;;;;;3.65;1.38;;;27.30;57.40;;;;;;5058290;28;20188;-81
2023/07/06 08:51:35;;;;;;;3.15;1.42;;;26.70;58.20;;;;;;5050166;28;20276;-81
2023/07/06 08:54:05;;;;;;;2.38;1.15;;;26.70;56.80;;;;;;5054671;28;20208;-81
2023/07/06 08:56:39;;;;;;;3.72;1.30;;;26.10;56.30;;;;;;5057660;28;20192;-82
2023/07/06 08:59:13;;;;;;;5.03;1.67;;;27.10;56.30;;;;;;5056688;28;20656;-82
2023/07/06 09:01:39;;;;;;;1.98;1.08;;;27.20;56.90;;;;;;5051537;28;20276;-81
2023/07/06 09:04:18;;;;;;;8.75;1.75;;;26.30;57.70;;;;;;5050170;28;20224;-82
2023/07/06 09:06:50;;;;;;;3.70;1.40;;;26.20;57.20;;;;;;5057805;28;20192;-81
2023/07/06 09:09:16;;;;;;;2.78;0.98;;;26.60;57.60;;;;;;5058289;28;20180;-81
2023/07/06 09:11:44;;;;;;;2.38;1.23;;;26.80;55.90;;;;;;5056539;28;20185;-81
2023/07/06 09:14:13;;;;;;;4.70;1.55;;;26.50;56.60;;;;;;5048224;28;20588;-81
2023/07/06 09:16:55;;;;;;;5.47;1.88;;;25.80;57.40;;;;;;5034677;28;20180;-81
2023/07/06 09:19:22;;;;;;;4.80;1.25;;;25.10;58.50;;;;;;5032296;28;20186;-80
2023/07/06 09:21:53;;;;;;;3.75;1.98;;;24.70;58.60;;;;;;5040145;28;20190;-81
2023/07/06 09:24:19;;;;;;;4.95;1.42;;;25.00;58.40;;;;;;5040625;28;20297;-81
2023/07/06 09:26:46;;;;;;;3.22;1.17;;;25.10;58.20;;;;;;5041312;28;20209;-80
2023/07/06 09:29:19;;;;;;;2.03;0.90;;;25.10;59.10;;;;;;5057262;28;20188;-80
2023/07/06 09:31:47;;;;;;;3.42;1.90;;;25.50;58.70;;;;;;5038865;28;20676;-81
2023/07/06 09:34:31;;;;;;;3.17;1.20;;;26.00;58.00;;;;;;5048736;28;20289;-81
2023/07/06 09:36:57;;;;;;;4.47;1.60;;;26.50;56.80;;;;;;5044668;28;20254;-81
2023/07/06 09:39:24;;;;;;;3.05;1.52;;;26.90;55.70;;;;;;5048196;28;20658;-81
2023/07/06 09:41:52;;;;;;;2.90;1.30;;;26.70;56.10;;;;;;5057031;28;20200;-81
2023/07/06 09:44:27;;;;;;;2.40;1.30;;;26.80;56.70;;;;;;5054647;28;20255;-81
2023/07/06 09:46:55;;;;;;;2.55;1.50;;;26.70;54.50;;;;;;5042332;28;20177;-81
2023/07/06 09:49:22;;;;;;;2.45;1.30;;;26.90;54.10;;;;;;5046277;28;20660;-81
2023/07/06 09:52:02;;;;;;;2.78;1.58;;;26.80;54.70;;;;;;5053920;28;20647;-81
2023/07/06 09:54:32;;;;;;;3.60;1.45;;;27.20;54.50;;;;;;5056681;28;20209;-80
2023/07/06 09:56:57;;;;;;;2.75;1.60;;;27.60;51.10;;;;;;5056204;28;20199;-81
2023/07/06 09:59:23;;;;;;;4.10;1.55;;;27.30;52.00;;;;;;5042453;28;20669;-80
2023/07/06 10:02:13;;;;;;;3.38;1.20;;;27.40;52.70;;;;;;5057292;28;20177;-82
2023/07/06 10:04:48;;;;;;;3.50;1.77;;;27.30;52.00;;;;;;5055302;28;20197;-81
2023/07/06 10:07:28;;;;;;;2.97;1.30;;;27.20;52.40;;;;;;5040657;28;20181;-80
2023/07/06 10:10:12;;;;;;;6.13;2.10;;;26.90;52.50;;;;;;5031853;28;20260;-81
2023/07/06 10:12:48;;;;;;;5.85;1.77;;;27.00;52.30;;;;;;5028556;28;20703;-82
2023/07/06 10:16:03;;;;;;;3.58;1.73;;;27.20;52.20;;;;;;5037515;28;20241;-80
2023/07/06 10:18:56;;;;;;;2.88;1.58;;;27.30;53.30;;;;;;5038146;28;20201;-81
2023/07/06 10:21:29;;;;;;;2.92;1.48;;;27.60;52.40;;;;;;5041812;28;20704;-82
2023/07/06 10:24:18;;;;;;;2.58;1.25;;;27.60;52.30;;;;;;5043312;28;20214;-82
2023/07/06 10:26:53;;;;;;;3.45;1.20;;;27.00;51.40;;;;;;5056466;28;20196;-82
2023/07/06 10:29:45;;;;;;;4.25;1.45;;;26.80;53.10;;;;;;5054505;28;20541;-82
2023/07/06 10:32:18;;;;;;;2.92;1.50;;;26.30;53.80;;;;;;5035071;28;20239;-81
2023/07/06 10:34:54;;;;;;;2.35;1.17;;;26.30;54.40;;;;;;5036326;28;20206;-81
2023/07/06 10:37:24;;;;;;;4.20;1.65;;;26.20;52.90;;;;;;5047925;28;20208;-81
2023/07/06 10:39:56;;;;;;;4.63;1.40;;;26.20;52.00;;;;;;5050011;28;20551;-81
2023/07/06 10:42:25;;;;;;;3.93;1.50;;;25.80;52.90;;;;;;5055657;28;20185;-82
2023/07/06 10:44:58;;;;;;;2.70;1.43;;;25.50;53.20;;;;;;5042568;28;20190;-81
2023/07/06 10:47:37;;;;;;;5.50;1.73;;;25.30;52.90;;;;;;5044190;28;20200;-82
2023/07/06 10:50:26;;;;;;;3.70;1.77;;;25.10;53.30;;;;;;5056061;28;20443;-81
2023/07/06 10:53:01;;;;;;;4.67;1.30;;;24.70;53.70;;;;;;5069685;28;20443;-82
2023/07/06 10:55:34;;;;;;;3.40;1.00;;;24.40;54.50;;;;;;5059896;28;20533;-79
2023/07/06 10:58:27;;;;;;;3.10;1.20;;;24.10;55.30;;;;;;5064060;28;20510;-79
2023/07/06 11:00:56;;;;;;;2.37;1.17;;;23.60;57.20;;;;;;5070990;28;20704;-80
2023/07/06 11:03:27;;;;;;;2.33;1.23;;;23.50;57.30;;;;;;5038767;28;20424;-78
2023/07/06 11:05:57;;;;;;;2.57;1.20;;;23.50;56.80;;;;;;5053095;28;20432;-80
2023/07/06 11:09:02;;;;;;;4.30;1.50;;;23.70;57.30;;;;;;5047223;28;20535;-79
2023/07/06 11:11:28;;;;;;;3.90;1.43;;;23.90;55.80;;;;;;5031975;28;20541;-80
2023/07/06 11:13:55;;;;;;;3.23;1.53;;;23.90;56.70;;;;;;5057010;28;20464;-79
2023/07/06 11:16:26;;;;;;;2.57;1.10;;;24.40;56.10;;;;;;5052944;28;20465;-80
2023/07/06 11:18:55;;;;;;;2.43;1.40;;;24.50;55.20;;;;;;5044054;28;20467;-80
2023/07/06 11:21:39;;;;;;;1.90;1.07;;;24.60;55.60;;;;;;5048565;28;20444;-81
2023/07/06 11:24:07;;;;;;;3.93;1.87;;;24.70;55.50;;;;;;5052492;28;20448;-81
2023/07/06 11:26:47;;;;;;;5.07;1.67;;;25.00;54.30;;;;;;5055544;28;20455;-81
2023/07/06 11:29:15;;;;;;;2.73;1.20;;;25.00;55.50;;;;;;5056205;28;20949;-81
2023/07/06 11:31:53;;;;;;;3.80;1.90;;;25.50;54.20;;;;;;5037002;28;20512;-81
2023/07/06 11:34:22;;;;;;;2.77;1.27;;;25.60;53.60;;;;;;5035684;28;20460;-81
2023/07/06 11:37:03;;;;;;;4.03;2.10;;;25.60;53.10;;;;;;5039529;28;20425;-81
2023/07/06 11:40:08;;;;;;;3.73;1.90;;;25.50;53.20;;;;;;5037948;28;20420;-80
2023/07/06 11:42:56;;;;;;;2.87;1.27;;;25.10;53.30;;;;;;5037173;28;20763;-78
2023/07/06 11:45:43;;;;;;;2.73;1.30;;;24.80;53.40;;;;;;5042146;28;20875;-80
2023/07/06 11:48:28;;;;;;;7.10;1.47;;;24.60;54.80;;;;;;5047323;28;20419;-80
2023/07/06 11:50:54;;;;;;;2.50;1.13;;;24.60;53.80;;;;;;5045224;28;20702;-81
2023/07/06 11:56:08;;;;;;;2.33;1.03;;;24.60;54.60;;;;;;5048990;28;20426;-80
2023/07/06 11:58:53;;;;;;;2.13;1.20;;;24.20;54.20;;;;;;5047745;28;20488;-81
2023/07/06 12:01:32;;;;;;;2.97;1.00;;;24.40;54.20;;;;;;5039435;28;20430;-80
2023/07/06 12:03:59;;;;;;;6.33;1.33;;;24.40;53.70;;;;;;5046732;28;20470;-80
2023/07/06 12:06:25;;;;;;;4.13;1.73;;;24.10;55.50;;;;;;5040434;28;20965;-80
2023/07/06 12:08:50;;;;;;;2.50;1.03;;;24.20;55.10;;;;;;5043029;28;20507;-80
2023/07/06 12:11:22;;;;;;;3.13;1.03;;;23.90;55.80;;;;;;5051824;28;20199;-81
2023/07/06 12:13:52;;;;;;;2.60;1.07;;;23.70;54.30;;;;;;5053821;28;20209;-80
2023/07/06 12:16:23;;;;;;;3.27;1.50;;;23.80;56.10;;;;;;5040613;28;20424;-81
2023/07/06 12:19:03;;;;;;;3.17;1.17;;;23.80;56.90;;;;;;5041833;28;20409;-81
2023/07/06 12:21:40;;;;;;;2.60;1.10;;;23.60;55.60;;;;;;5042108;28;20443;-79
2023/07/06 12:24:12;;;;;;;2.67;1.00;;;23.50;56.20;;;;;;5057106;28;20473;-80
2023/07/06 12:26:43;;;;;;;3.00;1.20;;;23.50;55.70;;;;;;5058506;28;20828;-80
2023/07/06 12:29:09;;;;;;;3.40;1.37;;;23.50;55.60;;;;;;5058208;28;20415;-80
2023/07/06 12:31:34;;;;;;;3.90;1.87;;;23.80;56.30;;;;;;5040593;28;20428;-80
2023/07/06 12:34:00;;;;;;;7.30;1.67;;;24.30;54.90;;;;;;5044700;28;20292;-80
2023/07/06 12:36:33;;;;;;;2.80;1.33;;;24.20;54.80;;;;;;5059097;28;20662;-81
2023/07/06 12:39:01;;;;;;;3.80;1.50;;;24.60;55.30;;;;;;5045028;28;20307;-80
2023/07/06 12:41:33;;;;;;;3.97;1.73;;;24.90;53.60;;;;;;5058829;28;20537;-79
2023/07/06 12:43:59;;;;;;;3.73;1.53;;;24.70;54.00;;;;;;5060275;28;20450;-80
2023/07/06 12:46:30;;;;;;;4.83;1.20;;;25.00;55.30;;;;;;5045100;28;20420;-80
2023/07/06 12:49:01;;;;;;;3.10;1.20;;;25.10;53.30;;;;;;5054071;28;20177;-80
2023/07/06 12:51:29;;;;;;;7.23;1.77;;;25.40;53.60;;;;;;5048309;28;20423;-80
2023/07/06 12:53:57;;;;;;;3.40;1.53;;;25.70;51.90;;;;;;5041007;28;20471;-79
2023/07/06 12:56:25;;;;;;;3.13;1.57;;;25.80;53.00;;;;;;5052718;28;20416;-80
2023/07/06 12:59:00;;;;;;;2.10;1.20;;;26.00;52.20;;;;;;5052225;28;20497;-80
2023/07/06 13:01:34;;;;;;;2.27;1.30;;;26.20;52.50;;;;;;5048148;28;20424;-80